KPRCKBLH

Guest
Details From KPRC - Prescott Ernest A. Love Field
To KBLH - BLYTHE
Flight Number -
Tags decoded
Created
Modified
Stats Distance 131 nm / 242 km
Max Altitude 0 ft / 0 m
Waypoints 5
Social Downloads 1
Likes 0
Share VATSIM

Download

Looking for another format? Having issues loading an existing format? Contact us
Advertisement - Login to hide

Notes

Requested: KPRC 28E NIDSE WUVER KBLH

Route

KPRC 28E NIDSE WUVER KBLH

ID Type Via Altitude Latitude Longitude Leg Dist Tot Dist Heading (true) Name
O KPRC APT - 0 ft / 0 m 34.65446˚ -112.41951˚ - 0 nm - Prescott Ernest A. Love Field
28E APT - 0 ft / 0 m 34.50891˚ -112.67990˚ 15 nm 15 nm 236° / 236° Quarter Circle J Ranch
NIDSE FIX - 0 ft / 0 m 33.87583˚ -114.01417˚ 76 nm 91 nm 241° / 240° -
WUVER FIX - 0 ft / 0 m 33.65156˚ -114.48164˚ 26 nm 118 nm 240° / 240° -
O KBLH APT - 0 ft / 0 m 33.61932˚ -114.71688˚ 11 nm 130 nm 261° / 261° BLYTHE

Altitude Profile

Advertisement - Login to hide

KPRC

Details ICAO KPRC (PRC)
Name Prescott Ernest A. Love Field
Region United States
Timezone America/Phoenix (UTC-7.0)
Stats Elevation 5,042 ft / 1,537 m (AMSL)
Location 34.654462° -112.419514°
Runways 3
Magnetic Variation 10.578° E

METAR

KPRC 240953Z AUTO 19005KT 9SM CLR 19/06 A3002 RMK AO2 SLP069 T01890061

Decode

TAF

TAF KPRC 240520Z 2406/2506 20008KT P6SM SKC FM242000 23012G18KT P6SM SKC

Decode

Departure Runways

ID Width Length Bearing (true) Bearing (mag) Surface Threshold Offset Overrun Length
03L 60 ft / 18 m 4,847 ft / 1,478 m 41.15° 30.57° Asphalt 811 ft / 247 m 0 ft / 0 m
03R 150 ft / 46 m 7,553 ft / 2,302 m 41.14° 30.56° Asphalt 723 ft / 220 m 0 ft / 0 m
12 75 ft / 23 m 4,409 ft / 1,344 m 136.67° 126.09° Asphalt 150 ft / 46 m 0 ft / 0 m
21L 150 ft / 46 m 7,553 ft / 2,302 m 221.15° 210.57° Asphalt 0 ft / 0 m 0 ft / 0 m
21R 60 ft / 18 m 4,847 ft / 1,478 m 221.16° 210.58° Asphalt 0 ft / 0 m 0 ft / 0 m
30 75 ft / 23 m 4,409 ft / 1,344 m 316.67° 306.09° Asphalt 0 ft / 0 m 0 ft / 0 m

KBLH

Details ICAO KBLH (BLH)
Name BLYTHE
Region United States
Timezone America/Los_Angeles (UTC-7.0)
Stats Elevation 399 ft / 122 m (AMSL)
Location 33.619318° -114.716882°
Runways 2
Magnetic Variation 11.061° E

METAR

KBLH 240953Z AUTO 19011KT 27/14 A2969 RMK AO2 SLP047 T02720139 $

Decode

TAF

TAF KBLH 240538Z 2406/2506 18010KT P6SM SKC TEMPO 2420/2424 18012G20KT

Decode

Destination Runways

ID Width Length Bearing (true) Bearing (mag) Surface Threshold Offset Overrun Length
08 150 ft / 46 m 6,531 ft / 1,991 m 90.21° 79.15° Asphalt 0 ft / 0 m 769 ft / 234 m
17 100 ft / 30 m 5,816 ft / 1,773 m 180.22° 169.16° Asphalt 0 ft / 0 m 212 ft / 65 m
26 150 ft / 46 m 6,531 ft / 1,991 m 270.22° 259.16° Asphalt 0 ft / 0 m 424 ft / 129 m
35 100 ft / 30 m 5,816 ft / 1,773 m 0.22° 349.16° Asphalt 0 ft / 0 m 200 ft / 61 m

Popular Alternatives